Terminal Aerodrome Forecast
Issued by NWS St Louis, MO

Home | Current Version | Previous Version | Text Only | Print | Product List | Glossary On
Versions: 1 2 3 4 5 6 7 8 9 10 11 12 13 14 15 16 17 18 19 20 21
731
FTUS43 KLSX 080536
TAFCOU
TAF
KCOU 080536Z 0806/0906 29014G25KT P6SM VCSH BKN035
     FM080900 30018G30KT P6SM -SHSN OVC030
     FM081700 31020G31KT P6SM OVC035
     FM082100 32017G28KT P6SM OVC030=

USA.gov is the U.S. government's official web portal to all federal, state and local government web resources and services.